CYYT

St. John's International Airport

St. John's, Canada
METAR CYYT 161000Z 20010KT 15SM BKN030 M02/M06 A2982 RMK SC7 SLP105
Observed Flight Rules
Dec-16 @ 10:00 UTC (56 minutes ago) Marginal Visual Flight Rules
Wind Visibility Clouds
200° at 10 knots 15 miles
  • Broken at 3,000' AGL
Temperatures Readings
Current -2°C / 28°F
Dewpoint -6°C / 21°F
Humidity 74%
Altimeter 29.82" Hg
Pressure 1010.5 hPa
Elevation 140
METAR CYYT 161000Z 20010KT 15SM BKN030 M02/M06 A2982 RMK SC7 SLP105
Observed Flight Rules
Dec-16 @ 10:00 UTC
(56 minutes ago)
MVFR
Wind Visibility
200° at 10 knots 15 miles
Clouds
  • Broken at 3,000' AGL
Temperature Dewpoint
-2°C / 28°F -6°C / 21°F
Humidity Altimeter Pressure
74% 29.82" Hg 1010.5 hPa